createdAt,value
2022-08-28T00:04:14.978Z,102046.47
2022-08-28T00:09:04.660Z,102047.38
2022-08-28T00:13:54.365Z,102048.25
2022-08-28T00:18:47.053Z,102042.19
2022-08-28T00:23:42.697Z,102046.56
2022-08-28T00:28:33.216Z,102047.44
2022-08-28T00:33:29.484Z,102050.09
2022-08-28T00:38:21.153Z,102049.22
2022-08-28T00:43:15.102Z,102058.81
2022-08-28T00:48:05.398Z,102053.59
2022-08-28T00:53:00.627Z,102053.56
2022-08-28T00:57:52.309Z,102051.84
2022-08-28T01:02:45.063Z,102058.81
2022-08-28T01:07:34.922Z,102060.56
2022-08-28T01:12:27.722Z,102061.41
2022-08-28T01:17:19.851Z,102060.56
2022-08-28T01:22:23.429Z,102064.03
2022-08-28T01:27:15.758Z,102046.66
2022-08-28T01:32:06.363Z,102044.91
2022-08-28T01:36:58.576Z,102057.06
2022-08-28T01:41:55.616Z,102057.94
2022-08-28T01:46:48.480Z,102053.59
2022-08-28T01:51:38.528Z,102050.97
2022-08-28T01:56:28.851Z,102051.88
2022-08-28T02:01:22.563Z,102048.38
2022-08-28T02:06:15.222Z,102058.78
2022-08-28T02:11:05.164Z,102054.41
2022-08-28T02:15:54.515Z,102063.06
2022-08-28T02:20:44.559Z,102063.91
2022-08-28T02:25:36.653Z,102073.41
2022-08-28T02:30:26.485Z,102073.41
2022-08-28T02:35:16.926Z,102070.78
2022-08-28T02:40:06.901Z,102071.66
2022-08-28T02:44:59.592Z,102068.16
2022-08-28T02:49:49.057Z,102076.84
2022-08-28T02:54:39.801Z,102080.31
2022-08-28T02:59:29.615Z,102093.34
2022-08-28T03:04:21.637Z,102089.84
2022-08-28T03:09:11.087Z,102087.22
2022-08-28T03:14:03.506Z,102080.25
2022-08-28T03:18:53.009Z,102079.38
2022-08-28T03:23:44.981Z,102088.94
2022-08-28T03:28:38.396Z,102084.56
2022-08-28T03:33:28.540Z,102083.66
2022-08-28T03:38:18.436Z,102089.72
2022-08-28T03:43:11.696Z,102098.41
2022-08-28T03:48:01.053Z,102106.22
2022-08-28T03:52:50.806Z,102107.06
2022-08-28T03:57:40.614Z,102108.84
2022-08-28T04:02:32.593Z,102114.91
2022-08-28T04:07:22.687Z,102109.69
2022-08-28T04:12:12.763Z,102110.56
2022-08-28T04:17:02.157Z,102119.22
2022-08-28T04:21:54.496Z,102110.53
2022-08-28T04:26:44.187Z,102118.34
2022-08-28T04:31:33.845Z,102119.19
2022-08-28T04:36:23.348Z,102120.91
2022-08-28T04:41:16.338Z,102120.03
2022-08-28T04:46:07.292Z,102125.22
2022-08-28T04:50:56.832Z,102126.94
2022-08-28T04:55:54.458Z,102128.63
2022-08-28T05:00:48.742Z,102136.44
2022-08-28T05:05:44.535Z,102130.34
2022-08-28T05:10:35.659Z,102137.28
2022-08-28T05:15:24.988Z,102137.31
2022-08-28T05:20:17.217Z,102150.34
2022-08-28T05:25:07.138Z,102151.22
2022-08-28T05:30:01.219Z,102152.06
2022-08-28T05:34:52.864Z,102148.59
2022-08-28T05:39:45.925Z,102152.06
2022-08-28T05:44:40.346Z,102162.50
2022-08-28T05:49:30.666Z,102175.50
2022-08-28T05:54:21.189Z,102168.59
2022-08-28T05:59:16.938Z,102166.91
2022-08-28T06:04:11.972Z,102172.13
2022-08-28T06:09:08.024Z,102169.53
2022-08-28T06:13:57.757Z,102164.34
2022-08-28T06:18:51.616Z,102170.47
2022-08-28T06:23:41.578Z,102169.59
2022-08-28T06:28:31.016Z,102180.97
2022-08-28T06:33:21.548Z,102171.41
2022-08-28T06:38:19.783Z,102177.56
2022-08-28T06:43:11.789Z,102188.03
2022-08-28T06:48:02.754Z,102193.28
2022-08-28T06:53:27.825Z,102194.19
2022-08-28T06:58:22.848Z,102186.41
2022-08-28T07:03:12.547Z,102184.72
2022-08-28T07:08:02.015Z,102190.84
2022-08-28T07:12:52.404Z,102192.63
2022-08-28T07:17:44.486Z,102194.38
2022-08-28T07:22:33.921Z,102204.00
2022-08-28T07:27:25.133Z,102214.44
2022-08-28T07:32:15.861Z,102211.88
2022-08-28T07:37:15.227Z,102211.03
2022-08-28T07:42:05.569Z,102223.25
2022-08-28T07:46:56.335Z,102225.84
2022-08-28T07:51:46.815Z,102231.97
2022-08-28T07:56:40.871Z,102233.72
2022-08-28T08:01:32.252Z,102241.63
2022-08-28T08:06:21.892Z,102241.63
2022-08-28T08:11:16.577Z,102246.84
2022-08-28T08:16:11.258Z,102259.03
2022-08-28T08:21:00.952Z,102252.94
2022-08-28T08:25:56.347Z,102251.19
2022-08-28T08:30:45.832Z,102251.19
2022-08-28T08:35:38.515Z,102252.94
2022-08-28T08:40:28.452Z,102253.81
2022-08-28T08:45:21.454Z,102240.72
2022-08-28T08:50:13.365Z,102240.66
2022-08-28T08:55:09.933Z,102237.91
2022-08-28T08:59:59.834Z,102243.78
2022-08-28T09:04:52.618Z,102240.91
2022-08-28T09:09:47.776Z,102240.63
2022-08-28T09:14:47.680Z,102251.63
2022-08-28T09:19:37.443Z,102243.50
2022-08-28T09:24:28.817Z,102241.53
2022-08-28T09:29:20.169Z,102236.03
2022-08-28T09:34:32.586Z,102245.28
2022-08-28T09:39:26.955Z,102230.53
2022-08-28T09:44:17.429Z,102242.34
2022-08-28T09:49:11.973Z,102244.22
2022-08-28T09:54:05.954Z,102241.19
2022-08-28T09:58:57.236Z,102241.91
2022-08-28T10:03:51.274Z,102244.31
2022-08-28T10:08:50.167Z,102247.47
2022-08-28T10:13:44.997Z,102247.78
2022-08-28T10:18:38.643Z,102234.53
2022-08-28T10:23:32.078Z,102239.19
2022-08-28T10:28:31.574Z,102237.88
2022-08-28T10:33:32.449Z,102237.63
2022-08-28T10:38:26.823Z,102238.75
2022-08-28T10:43:19.388Z,102229.19
2022-08-28T10:48:12.140Z,102225.63
2022-08-28T10:53:07.356Z,102232.59
2022-08-28T10:58:00.355Z,102235.91
2022-08-28T11:02:52.765Z,102238.50
2022-08-28T11:07:45.180Z,102251.31
2022-08-28T11:12:45.927Z,102244.03
2022-08-28T11:17:41.888Z,102241.03
2022-08-28T11:22:33.117Z,102245.22
2022-08-28T11:27:33.588Z,102249.59
2022-08-28T11:32:47.105Z,102246.03
2022-08-28T11:37:40.521Z,102248.16
2022-08-28T11:42:38.367Z,102252.59
2022-08-28T11:47:41.363Z,102244.53
2022-08-28T11:52:38.817Z,102242.13
2022-08-28T11:57:31.882Z,102241.41
2022-08-28T12:02:36.958Z,102237.78
2022-08-28T12:07:36.011Z,102241.59
2022-08-28T12:12:40.757Z,102230.91
2022-08-28T12:17:41.522Z,102235.81
2022-08-28T12:22:46.621Z,102237.09
2022-08-28T12:27:38.991Z,102235.06
2022-08-28T12:32:33.515Z,102229.09
2022-08-28T12:37:28.475Z,102238.81
2022-08-28T12:42:22.480Z,102229.50
2022-08-28T12:47:15.214Z,102238.00
2022-08-28T12:52:16.966Z,102231.75
2022-08-28T12:57:08.303Z,102224.38
2022-08-28T13:02:04.160Z,102219.69
2022-08-28T13:07:00.725Z,102217.00
2022-08-28T13:11:51.908Z,102220.19
2022-08-28T13:16:42.653Z,102229.81
2022-08-28T13:21:37.428Z,102216.31
2022-08-28T13:26:28.894Z,102217.00
2022-08-28T13:31:24.955Z,102211.13
2022-08-28T13:36:25.203Z,102217.81
2022-08-28T13:41:20.978Z,102221.59
2022-08-28T13:46:10.548Z,102222.22
2022-08-28T13:51:01.477Z,102213.19
2022-08-28T13:55:54.208Z,102209.25
2022-08-28T14:00:50.050Z,102210.31
2022-08-28T14:05:39.658Z,102207.09
2022-08-28T14:10:29.119Z,102205.94
2022-08-28T14:15:19.629Z,102206.44
2022-08-28T14:20:17.644Z,102204.56
2022-08-28T14:25:07.508Z,102196.66
2022-08-28T14:29:56.944Z,102201.00
2022-08-28T14:34:50.688Z,102204.88
2022-08-28T14:39:44.613Z,102197.91
2022-08-28T14:44:49.376Z,102196.59
2022-08-28T14:49:42.639Z,102198.91
2022-08-28T14:54:35.355Z,102194.38
2022-08-28T14:59:28.769Z,102187.31
2022-08-28T15:04:20.251Z,102192.25
2022-08-28T15:09:09.957Z,102182.88
2022-08-28T15:14:04.078Z,102186.69
2022-08-28T15:18:56.984Z,102181.53
2022-08-28T15:23:47.195Z,102179.06
2022-08-28T15:28:37.652Z,102178.19
2022-08-28T15:33:27.073Z,102175.28
2022-08-28T15:38:19.064Z,102176.25
2022-08-28T15:43:08.817Z,102178.19
2022-08-28T15:48:00.376Z,102175.66
2022-08-28T15:52:50.177Z,102183.53
2022-08-28T15:57:45.384Z,102184.44
2022-08-28T16:02:34.820Z,102172.53
2022-08-28T16:07:25.272Z,102170.06
2022-08-28T16:12:14.647Z,102180.56
2022-08-28T16:17:11.012Z,102170.75
2022-08-28T16:22:00.807Z,102179.00
2022-08-28T16:26:50.524Z,102165.47
2022-08-28T16:31:40.252Z,102169.72
2022-08-28T16:36:33.564Z,102174.13
2022-08-28T16:41:24.072Z,102176.84
2022-08-28T16:46:19.535Z,102178.66
2022-08-28T16:51:09.453Z,102185.66
2022-08-28T16:56:01.489Z,102181.53
2022-08-28T17:00:52.707Z,102176.22
2022-08-28T17:05:46.869Z,102179.00
2022-08-28T17:10:38.881Z,102185.06
2022-08-28T17:15:31.930Z,102176.28
2022-08-28T17:20:34.988Z,102184.31
2022-08-28T17:25:25.896Z,102182.84
2022-08-28T17:30:18.437Z,102178.78
2022-08-28T17:35:14.784Z,102174.53
2022-08-28T17:40:05.699Z,102175.63
2022-08-28T17:44:56.260Z,102177.69
2022-08-28T17:49:49.949Z,102180.53
2022-08-28T17:54:43.203Z,102178.03
2022-08-28T17:59:34.527Z,102180.75
2022-08-28T18:04:26.144Z,102178.13
2022-08-28T18:09:18.044Z,102172.97
2022-08-28T18:14:11.264Z,102173.16
2022-08-28T18:19:01.973Z,102177.84
2022-08-28T18:23:52.171Z,102181.50
2022-08-28T18:28:42.291Z,102175.50
2022-08-28T18:33:36.806Z,102189.59
2022-08-28T18:38:28.617Z,102180.09
2022-08-28T18:43:20.659Z,102178.56
2022-08-28T18:48:13.437Z,102191.66
2022-08-28T18:53:08.056Z,102196.09
2022-08-28T18:57:59.176Z,102202.34
2022-08-28T19:02:51.060Z,102203.28
2022-08-28T19:07:41.704Z,102205.19
2022-08-28T19:16:02.431Z,102222.00
2022-08-28T19:20:53.899Z,102223.75
2022-08-28T19:25:44.429Z,102229.94
2022-08-28T19:30:35.611Z,102234.38
2022-08-28T19:35:29.110Z,102233.53
2022-08-28T19:40:18.730Z,102244.84
2022-08-28T19:45:09.868Z,102246.63
2022-08-28T19:49:59.438Z,102244.06
2022-08-28T19:54:52.090Z,102246.72
2022-08-28T19:59:45.574Z,102252.03
2022-08-28T20:04:35.266Z,102254.75
2022-08-28T20:09:24.699Z,102259.22
2022-08-28T20:14:17.526Z,102254.00
2022-08-28T20:19:07.809Z,102260.13
2022-08-28T20:23:57.326Z,102261.88
2022-08-28T20:28:46.695Z,102268.84
2022-08-28T20:33:40.685Z,102267.09
2022-08-28T20:38:30.031Z,102274.09
2022-08-28T20:43:19.462Z,102264.50
2022-08-28T20:48:08.871Z,102275.00
2022-08-28T20:53:03.818Z,102276.81
2022-08-28T20:57:53.164Z,102289.06
2022-08-28T21:02:42.900Z,102296.91
2022-08-28T21:07:33.497Z,102294.31
2022-08-28T21:12:25.635Z,102290.84
2022-08-28T21:17:15.080Z,102292.66
2022-08-28T21:22:13.782Z,102296.13
2022-08-28T21:27:05.299Z,102296.13
2022-08-28T21:32:01.775Z,102296.13
2022-08-28T21:36:53.625Z,102291.81
2022-08-28T21:41:44.007Z,102291.88
2022-08-28T21:46:34.145Z,102297.13
2022-08-28T21:51:27.837Z,102288.41
2022-08-28T21:56:19.510Z,102300.66
2022-08-28T22:01:09.674Z,102305.94
2022-08-28T22:06:00.611Z,102307.72
2022-08-28T22:10:53.739Z,102307.75
2022-08-28T22:15:45.428Z,102305.16
2022-08-28T22:20:36.875Z,102303.41
2022-08-28T22:25:27.452Z,102312.13
2022-08-28T22:30:20.615Z,102298.19
2022-08-28T22:35:11.384Z,102311.28
2022-08-28T22:40:02.558Z,102319.16
2022-08-28T22:44:59.916Z,102319.16
2022-08-28T22:49:53.067Z,102313.91
2022-08-28T22:54:43.667Z,102306.94
2022-08-28T22:59:33.983Z,102304.31
2022-08-28T23:04:24.242Z,102306.94
2022-08-28T23:09:19.799Z,102312.16
2022-08-28T23:14:09.601Z,102313.03
2022-08-28T23:19:09.061Z,102319.16
2022-08-28T23:24:00.305Z,102306.94
2022-08-28T23:28:54.585Z,102315.69
2022-08-28T23:33:44.184Z,102313.91
2022-08-28T23:38:34.307Z,102308.69
2022-08-28T23:43:24.984Z,102295.63
2022-08-28T23:48:17.905Z,102287.78
2022-08-28T23:53:08.080Z,102279.94
2022-08-28T23:57:58.325Z,102292.16
